createdAt,value
2022-12-16T00:03:22.890Z,96033.27
2022-12-16T00:13:28.366Z,96024.91
2022-12-16T00:23:33.757Z,96034.59
2022-12-16T00:33:38.034Z,96043.75
2022-12-16T00:43:41.795Z,96064.26
2022-12-16T00:53:45.666Z,96040.67
2022-12-16T01:03:49.899Z,96029.94
2022-12-16T01:13:55.453Z,96030.95
2022-12-16T01:23:59.833Z,96005.91
2022-12-16T01:34:03.806Z,95977.73
2022-12-16T01:44:16.728Z,95969.10
2022-12-16T01:54:31.907Z,95963.17
2022-12-16T02:04:35.683Z,95966.57
2022-12-16T02:15:05.441Z,95958.83
2022-12-16T02:25:37.130Z,95947.55
2022-12-16T02:36:11.594Z,95936.46
2022-12-16T02:46:17.143Z,95908.32
2022-12-16T02:56:35.936Z,95887.67
2022-12-16T03:06:42.970Z,95880.42
2022-12-16T03:16:49.935Z,95878.57
2022-12-16T03:27:21.086Z,95865.70
2022-12-16T03:37:29.546Z,95838.86
2022-12-16T03:47:33.328Z,95814.30
2022-12-16T03:57:37.635Z,95794.55
2022-12-16T04:07:42.191Z,95765.09
2022-12-16T04:18:04.898Z,95728.75
2022-12-16T04:28:08.969Z,95713.19
2022-12-16T04:38:31.665Z,95729.79
2022-12-16T04:48:54.166Z,95748.23
2022-12-16T04:59:17.169Z,95739.17
2022-12-16T05:09:39.454Z,95721.77
2022-12-16T05:20:02.358Z,95716.02
2022-12-16T05:30:30.464Z,95692.14
2022-12-16T05:40:55.855Z,95698.58
2022-12-16T05:51:18.639Z,95706.94
2022-12-16T06:01:41.530Z,95702.71
2022-12-16T06:12:11.503Z,95693.84
2022-12-16T06:22:34.625Z,95687.02
2022-12-16T06:32:57.211Z,95675.84
2022-12-16T06:43:19.775Z,95685.80
2022-12-16T06:53:42.614Z,95684.16
2022-12-16T07:04:05.535Z,95671.76
2022-12-16T07:14:28.309Z,95669.45
2022-12-16T07:24:51.107Z,95678.10
2022-12-16T07:35:13.906Z,95676.00
2022-12-16T07:45:43.323Z,95674.08
2022-12-16T07:56:07.897Z,95680.20
2022-12-16T08:06:33.081Z,95685.20
2022-12-16T08:16:59.314Z,95676.28
2022-12-16T08:27:23.265Z,95667.57
2022-12-16T08:37:47.301Z,95665.73
2022-12-16T08:48:10.705Z,95653.47
2022-12-16T08:58:33.407Z,95654.80
2022-12-16T09:08:56.216Z,95660.38
2022-12-16T09:19:18.916Z,95664.58
2022-12-16T09:29:44.921Z,95659.86
2022-12-16T09:40:07.777Z,95664.67
2022-12-16T09:50:44.381Z,95664.81
2022-12-16T10:01:08.471Z,95680.48
2022-12-16T10:12:09.475Z,95681.73
2022-12-16T10:22:47.023Z,95681.93
2022-12-16T10:33:10.579Z,95691.27
2022-12-16T10:43:38.606Z,95693.52
2022-12-16T10:54:03.839Z,95699.23
2022-12-16T11:04:56.385Z,95709.98
2022-12-16T11:15:39.910Z,95713.95
2022-12-16T11:26:02.065Z,95719.33
2022-12-16T11:36:33.588Z,95717.23
2022-12-16T11:46:56.519Z,95729.73
2022-12-16T11:57:21.605Z,95736.65
2022-12-16T12:07:55.587Z,95751.40
2022-12-16T12:18:30.503Z,95753.47
2022-12-16T12:28:53.251Z,95760.57
2022-12-16T12:39:39.866Z,95772.54
2022-12-16T12:50:16.602Z,95786.23
2022-12-16T13:00:42.271Z,95794.04
2022-12-16T13:11:18.698Z,95806.85
2022-12-16T13:21:57.600Z,95813.42
2022-12-16T13:32:23.019Z,95859.33
2022-12-16T13:43:09.509Z,95873.30
2022-12-16T13:53:35.320Z,95896.71
2022-12-16T14:04:06.748Z,95918.12
2022-12-16T14:14:46.705Z,95922.68
2022-12-16T14:25:10.714Z,95917.04
2022-12-16T14:35:45.413Z,95941.16
2022-12-16T14:46:10.049Z,95981.30
2022-12-16T14:56:38.625Z,96000.52
2022-12-16T15:07:06.215Z,96011.39
2022-12-16T15:18:01.903Z,96018.95
2022-12-16T15:28:24.740Z,96034.97
2022-12-16T15:38:51.448Z,96041.49
2022-12-16T15:49:14.450Z,96051.53
2022-12-16T15:59:53.410Z,96077.61
2022-12-16T16:10:30.429Z,96084.37
2022-12-16T16:20:52.927Z,96079.31
2022-12-16T16:31:15.621Z,96093.09
2022-12-16T16:41:38.979Z,96140.40
2022-12-16T16:52:02.456Z,96166.63
2022-12-16T17:02:40.910Z,96178.95
2022-12-16T17:13:05.283Z,96168.61
2022-12-16T17:23:28.625Z,96189.75
2022-12-16T17:33:51.152Z,96207.89
2022-12-16T17:44:16.011Z,96205.66
2022-12-16T17:54:39.760Z,96222.14
2022-12-16T18:05:03.047Z,96237.74
2022-12-16T18:15:26.283Z,96243.35
2022-12-16T18:26:00.118Z,96248.42
2022-12-16T18:36:25.265Z,96254.39
2022-12-16T18:46:48.356Z,96265.09
2022-12-16T18:57:12.593Z,96274.52
2022-12-16T19:07:36.363Z,96284.98
2022-12-16T19:18:00.176Z,96292.15
2022-12-16T19:28:24.141Z,96310.64
2022-12-16T19:38:47.792Z,96344.28
2022-12-16T19:49:13.882Z,96332.16
2022-12-16T19:59:40.159Z,96343.84
2022-12-16T20:10:03.980Z,96352.48
2022-12-16T20:20:28.318Z,96369.04
2022-12-16T20:30:52.362Z,96381.48
2022-12-16T20:41:21.420Z,96411.64
2022-12-16T20:51:45.991Z,96421.16
2022-12-16T21:02:29.081Z,96418.67
2022-12-16T21:12:53.730Z,96437.89
2022-12-16T21:23:24.924Z,96431.55
2022-12-16T21:33:49.702Z,96434.15
2022-12-16T21:44:13.041Z,96459.80
2022-12-16T21:54:36.781Z,96457.50
2022-12-16T22:04:59.712Z,96461.52
2022-12-16T22:15:22.921Z,96463.46
2022-12-16T22:25:45.632Z,96475.68
2022-12-16T22:36:08.473Z,96480.53
2022-12-16T22:46:32.331Z,96498.55
2022-12-16T22:56:56.340Z,96496.04
2022-12-16T23:07:19.391Z,96491.36
2022-12-16T23:17:42.608Z,96484.70
2022-12-16T23:28:05.630Z,96502.10
2022-12-16T23:38:29.774Z,96510.96
2022-12-16T23:48:52.877Z,96514.18
2022-12-16T23:59:17.298Z,96507.20
